Hopewell, Ohio
Current Conditions -  °F | °C
As of 9:53 PM on Monday 20 Oct 2014 (Local Time) from KZZV Reporting Station
Moderate Rain Moderate Rain  
Wind Chill: 50°   Ceiling: 3300
Heat Index: 50°   Visibility: 6mi
Dew Point: 48°   Wind: 6mph
Humidity: 93%   Direction: 40°NE
Pressure: 29.88"   Gusts: NA
Location:  39.95°N, 82.17°W
Report Text: KZZV 210153Z AUTO 04005KT 6SM RA BR OVC033 10/09 A2988 RMK AO2 SLP120 P0005 T01000089
Loading
Personal Weather Stations






























Interactive Weather Map New forecast layout! Learn more

10-Day Weather Forecast

Advertisements
Track Severe Weather on mobile